In Rescue
 
Open Full Screen Window  High Contrast Mode
Wind Gusting 00 knots
08
May 28, 2020 5:09 PM EDT
Present Weather: Mist
Weather Information
Wind Direction
  260 °
Wind Speed
  08 kt (9 mph)
Wind Gust
  00 kt (0 mph)
Altimeter
29.77 in
Visibility
2 1/2 SM
Temperature
15° C
59° F
Dewpoint
15° C
59° F
Humidity
100%
Sky Condition
Overcast @ 200 ft
LIFR

METAR KCVX 282109Z AUTO 26008KT 2 1/2SM BR OVC002 15/15 A2977 RMK AO2 T01500147

FAA Disclaimer: The data displayed is for advisory purposes only and is not to be used for flight planning or operations.